Afrodite — CURM3 — position and weather

sailwx.info

Track history (hours):
 
Tides and Currents Weather Stations Pressure Air Temp Water Temp Dewpoint Dewpoint Depression Visibility Wind Speed Wind Dir Waves Ship Positions

Afrodite

Last reported at 2015-Jul-04 01:05 UTC. Time now 2015-Jul-04 20:44 UTC.
Position N 39°21' W 009°22'.

Length 26 m.

Type: Fishing. MMSI: 263500170.

Date/timePositionNaut miles runAvg speedWind from/ knotsBaromVisibWave heightAir tempDewpointWater temp
2015-Jul-04 01:05N 39°21' W 009°22'8 1.6
2015-Jul-03 20:05N 39°28' W 009°17'1 0.8
2015-Jul-03 19:15N 39°28' W 009°16'9 4.1
2015-Jul-03 17:09N 39°22' W 009°25'2 3.3
2015-Jul-03 16:33N 39°21' W 009°22'2 0.4
2015-Jul-03 11:21N 39°22' W 009°24'2 0.2
2015-Jul-02 22:32N 39°21' W 009°22'1 0.7
2015-Jul-02 21:31N 39°21' W 009°23'1 0.2
2015-Jul-02 17:20N 39°21' W 009°22'4 0.9
2015-Jul-02 12:33N 39°19' W 009°27'4 4.5
2015-Jul-02 11:33N 39°21' W 009°22'0 0.0
2015-Jul-01 23:33N 39°21' W 009°22'0 0.0
2015-Jul-01 17:29N 39°21' W 009°22'0 0.0
2015-Jul-01 16:33N 39°21' W 009°22'0 0.0
2015-Jul-01 11:25N 39°21' W 009°22'0 0.0
2015-Jun-30 22:33N 39°21' W 009°22'3 0.3
2015-Jun-30 14:21N 39°21' W 009°25'5 6.3
2015-Jun-30 13:32N 39°16' W 009°27'5 5.2
2015-Jun-30 12:33N 39°12' W 009°22'9 7.5
2015-Jun-30 11:21N 39°21' W 009°22'0 0.0
2015-Jun-30 07:24N 39°21' W 009°22'4 4.2
2015-Jun-30 06:33N 39°18' W 009°23'2 2.3
2015-Jun-30 05:33N 39°16' W 009°24'2 1.2
2015-Jun-30 03:33N 39°18' W 009°25'4 0.8
2015-Jun-29 22:32N 39°21' W 009°22'5 5.3
2015-Jun-29 21:33N 39°16' W 009°24'2 1.6
2015-Jun-29 20:33N 39°15' W 009°24'1 1.0
2015-Jun-29 19:33N 39°16' W 009°24'2 2.1
2015-Jun-29 18:33N 39°18' W 009°24'2 2.0
2015-Jun-29 17:31N 39°16' W 009°24'0 0.2
2015-Jun-29 16:33N 39°16' W 009°24'6 5.4
2015-Jun-29 15:31N 39°21' W 009°22'1 1.2
2015-Jun-29 14:33N 39°20' W 009°23'1 0.2
2015-Jun-29 11:26N 39°21' W 009°23'  
2015-Jun-26 21:33N 39°19' W 009°23'8 8.0
2015-Jun-26 20:33N 39°12' W 009°30'1 1.1
2015-Jun-26 19:33N 39°12' W 009°28'9 9.1
2015-Jun-26 18:33N 39°21' W 009°23'7 1.4
2015-Jun-26 13:33N 39°14' W 009°23'1 1.2
2015-Jun-26 12:32N 39°15' W 009°24'6 6.0
2015-Jun-26 11:33N 39°21' W 009°24'1 0.1
2015-Jun-25 22:28N 39°21' W 009°22'8 8.5
2015-Jun-25 21:33N 39°13' W 009°24'2 1.6
2015-Jun-25 20:33N 39°15' W 009°25'3 2.8
2015-Jun-25 19:31N 39°12' W 009°26'0 0.2
2015-Jun-25 18:30N 39°12' W 009°25'1 0.6
2015-Jun-25 17:33N 39°12' W 009°25'0 0.2
2015-Jun-25 16:33N 39°12' W 009°25'3 2.8
2015-Jun-25 15:33N 39°15' W 009°24'4 3.7
2015-Jun-25 14:31N 39°18' W 009°27'0 0.2
2015-Jun-25 13:29N 39°18' W 009°27'5 5.3
2015-Jun-25 12:33N 39°21' W 009°22'0 0.0
2015-Jun-25 07:33N 39°21' W 009°22'5 5.4
2015-Jun-25 06:32N 39°19' W 009°29'0 0.3
2015-Jun-25 05:18N 39°20' W 009°28'2 2.5
2015-Jun-25 04:30N 39°20' W 009°26'3 0.8
2015-Jun-25 00:27N 39°21' W 009°22'4 5.0
2015-Jun-24 23:33N 39°18' W 009°25'1010.2
2015-Jun-24 22:33N 39°09' W 009°32'2 1.9
2015-Jun-24 21:33N 39°07' W 009°34'1 0.8
2015-Jun-24 20:33N 39°08' W 009°33'5 5.3
2015-Jun-24 19:33N 39°13' W 009°31'11 7.6
2015-Jun-24 18:08N 39°21' W 009°22'0 0.0
2015-Jun-24 17:33N 39°21' W 009°22'5 5.0
2015-Jun-24 16:32N 39°19' W 009°28'0 0.2
2015-Jun-24 15:30N 39°19' W 009°28'1 1.1
2015-Jun-24 14:31N 39°19' W 009°27'0 0.2
2015-Jun-24 13:33N 39°19' W 009°27'6 0.6
2015-Jun-24 04:34N 39°13' W 009°25'  
Track history (hours):
 
Tides and Currents Weather Stations Pressure Air Temp Water Temp Dewpoint Dewpoint Depression Visibility Wind Speed Wind Dir Waves Ship Positions

Afrodite

Last reported at 2015-Jul-04 01:05 UTC. Time now 2015-Jul-04 20:44 UTC.
Position N 39°21' W 009°22'.

Length 26 m.

Type: Fishing. MMSI: 263500170.

Date/timePositionNaut miles runAvg speedWind from/ knotsBaromVisibWave heightAir tempDewpointWater temp
2015-Jul-04 01:05N 39°21' W 009°22'8 1.6
2015-Jul-03 20:05N 39°28' W 009°17'1 0.8
2015-Jul-03 19:15N 39°28' W 009°16'9 4.1
2015-Jul-03 17:09N 39°22' W 009°25'2 3.3
2015-Jul-03 16:33N 39°21' W 009°22'2 0.4
2015-Jul-03 11:21N 39°22' W 009°24'2 0.2
2015-Jul-02 22:32N 39°21' W 009°22'1 0.7
2015-Jul-02 21:31N 39°21' W 009°23'1 0.2
2015-Jul-02 17:20N 39°21' W 009°22'4 0.9
2015-Jul-02 12:33N 39°19' W 009°27'4 4.5
2015-Jul-02 11:33N 39°21' W 009°22'0 0.0
2015-Jul-01 23:33N 39°21' W 009°22'0 0.0
2015-Jul-01 17:29N 39°21' W 009°22'0 0.0
2015-Jul-01 16:33N 39°21' W 009°22'0 0.0
2015-Jul-01 11:25N 39°21' W 009°22'0 0.0
2015-Jun-30 22:33N 39°21' W 009°22'3 0.3
2015-Jun-30 14:21N 39°21' W 009°25'5 6.3
2015-Jun-30 13:32N 39°16' W 009°27'5 5.2
2015-Jun-30 12:33N 39°12' W 009°22'9 7.5
2015-Jun-30 11:21N 39°21' W 009°22'0 0.0
2015-Jun-30 07:24N 39°21' W 009°22'4 4.2
2015-Jun-30 06:33N 39°18' W 009°23'2 2.3
2015-Jun-30 05:33N 39°16' W 009°24'2 1.2
2015-Jun-30 03:33N 39°18' W 009°25'4 0.8
2015-Jun-29 22:32N 39°21' W 009°22'5 5.3
2015-Jun-29 21:33N 39°16' W 009°24'2 1.6
2015-Jun-29 20:33N 39°15' W 009°24'1 1.0
2015-Jun-29 19:33N 39°16' W 009°24'2 2.1
2015-Jun-29 18:33N 39°18' W 009°24'2 2.0
2015-Jun-29 17:31N 39°16' W 009°24'0 0.2
2015-Jun-29 16:33N 39°16' W 009°24'6 5.4
2015-Jun-29 15:31N 39°21' W 009°22'1 1.2
2015-Jun-29 14:33N 39°20' W 009°23'1 0.2
2015-Jun-29 11:26N 39°21' W 009°23'  
2015-Jun-26 21:33N 39°19' W 009°23'8 8.0
2015-Jun-26 20:33N 39°12' W 009°30'1 1.1
2015-Jun-26 19:33N 39°12' W 009°28'9 9.1
2015-Jun-26 18:33N 39°21' W 009°23'7 1.4
2015-Jun-26 13:33N 39°14' W 009°23'1 1.2
2015-Jun-26 12:32N 39°15' W 009°24'6 6.0
2015-Jun-26 11:33N 39°21' W 009°24'1 0.1
2015-Jun-25 22:28N 39°21' W 009°22'8 8.5
2015-Jun-25 21:33N 39°13' W 009°24'2 1.6
2015-Jun-25 20:33N 39°15' W 009°25'3 2.8
2015-Jun-25 19:31N 39°12' W 009°26'0 0.2
2015-Jun-25 18:30N 39°12' W 009°25'1 0.6
2015-Jun-25 17:33N 39°12' W 009°25'0 0.2
2015-Jun-25 16:33N 39°12' W 009°25'3 2.8
2015-Jun-25 15:33N 39°15' W 009°24'4 3.7
2015-Jun-25 14:31N 39°18' W 009°27'0 0.2
2015-Jun-25 13:29N 39°18' W 009°27'5 5.3
2015-Jun-25 12:33N 39°21' W 009°22'0 0.0
2015-Jun-25 07:33N 39°21' W 009°22'5 5.4
2015-Jun-25 06:32N 39°19' W 009°29'0 0.3
2015-Jun-25 05:18N 39°20' W 009°28'2 2.5
2015-Jun-25 04:30N 39°20' W 009°26'3 0.8
2015-Jun-25 00:27N 39°21' W 009°22'4 5.0
2015-Jun-24 23:33N 39°18' W 009°25'1010.2
2015-Jun-24 22:33N 39°09' W 009°32'2 1.9
2015-Jun-24 21:33N 39°07' W 009°34'1 0.8
2015-Jun-24 20:33N 39°08' W 009°33'5 5.3
2015-Jun-24 19:33N 39°13' W 009°31'11 7.6
2015-Jun-24 18:08N 39°21' W 009°22'0 0.0
2015-Jun-24 17:33N 39°21' W 009°22'5 5.0
2015-Jun-24 16:32N 39°19' W 009°28'0 0.2
2015-Jun-24 15:30N 39°19' W 009°28'1 1.1
2015-Jun-24 14:31N 39°19' W 009°27'0 0.2
2015-Jun-24 13:33N 39°19' W 009°27'6 0.6
2015-Jun-24 04:34N 39°13' W 009°25'  

Dump ship's entire track history